Time;durP1;ratioP1;P1;durP2;ratioP2;P2;SDS_P1;SDS_P2;PMS_P1;PMS_P2;Temp;Humidity;BMP_temperature;BMP_pressure;BME280_temperature;BME280_humidity;BME280_pressure;Samples;Min_cycle;Max_cycle;Signal;HPM_P1;HPM_P2
2023/03/08 00:01:59;;;;;;;15.00;6.30;;;;;;;0.90;65.06;99423.19;105314;1260;60447;-54
2023/03/08 00:04:28;;;;;;;12.30;5.40;;;;;;;0.97;64.83;99423.83;105379;1260;74602;-54
2023/03/08 00:06:56;;;;;;;16.10;5.90;;;;;;;1.05;64.88;99416.86;109094;1257;70818;-54
2023/03/08 00:09:28;;;;;;;15.10;5.90;;;;;;;1.14;64.95;99409.59;109104;1256;73922;-55
2023/03/08 00:11:56;;;;;;;11.90;5.30;;;;;;;1.26;64.98;99408.38;109116;1256;61862;-55
2023/03/08 00:14:25;;;;;;;13.60;5.90;;;;;;;1.38;64.67;99411.38;106167;1256;61236;-55
2023/03/08 00:16:53;;;;;;;16.50;8.80;;;;;;;1.44;64.69;99401.98;105511;1257;74870;-54
2023/03/08 00:19:22;;;;;;;12.50;6.70;;;;;;;1.46;64.75;99388.73;105419;1260;69989;-55
2023/03/08 00:21:51;;;;;;;13.60;6.70;;;;;;;1.49;64.87;99387.55;105478;1260;74052;-55
2023/03/08 00:24:24;;;;;;;12.80;6.50;;;;;;;1.52;64.81;99389.59;105414;1257;60587;-55
2023/03/08 00:26:52;;;;;;;14.50;7.40;;;;;;;1.54;64.56;99389.84;105520;1257;61141;-55
2023/03/08 00:29:20;;;;;;;16.80;6.60;;;;;;;1.52;64.27;99382.70;105465;1260;74908;-55
2023/03/08 00:31:49;;;;;;;17.00;7.80;;;;;;;1.47;64.14;99392.84;105416;1257;71214;-55
2023/03/08 00:34:19;;;;;;;13.20;6.40;;;;;;;1.44;64.38;99399.61;105405;1257;74094;-55
2023/03/08 00:36:48;;;;;;;15.00;8.30;;;;;;;1.43;64.77;99389.94;105537;1257;60558;-54
2023/03/08 00:39:17;;;;;;;17.30;8.00;;;;;;;1.44;65.00;99385.95;105650;1256;60976;-55
2023/03/08 00:41:46;;;;;;;14.30;7.70;;;;;;;1.42;65.07;99376.00;105558;1257;73538;-54
2023/03/08 00:44:14;;;;;;;19.30;10.00;;;;;;;1.41;65.30;99373.46;105547;1257;71181;-54
2023/03/08 00:46:42;;;;;;;14.90;7.30;;;;;;;1.41;65.35;99365.69;105343;1257;73520;-56
2023/03/08 00:49:13;;;;;;;15.40;8.80;;;;;;;1.40;65.36;99367.33;105383;1258;61766;-56
2023/03/08 00:51:42;;;;;;;15.10;7.10;;;;;;;1.39;65.39;99364.30;105401;1257;60520;-56
2023/03/08 00:54:10;;;;;;;16.30;6.70;;;;;;;1.37;65.45;99356.61;105441;1260;74621;-54
2023/03/08 00:56:39;;;;;;;17.00;5.90;;;;;;;1.43;65.42;99350.72;105474;1260;70208;-55
2023/03/08 00:59:08;;;;;;;18.10;7.40;;;;;;;1.55;65.41;99355.41;105380;1262;72715;-54
2023/03/08 01:01:38;;;;;;;16.00;5.40;;;;;;;1.68;65.78;99364.50;105380;1257;61122;-55
2023/03/08 01:04:08;;;;;;;14.20;6.10;;;;;;;1.84;65.99;99363.86;105441;1257;61529;-55
2023/03/08 01:06:38;;;;;;;12.40;5.50;;;;;;;1.98;66.02;99353.17;105385;1260;74839;-56
2023/03/08 01:09:10;;;;;;;13.00;6.20;;;;;;;2.10;65.90;99348.64;105549;1257;62757;-55
2023/03/08 01:11:39;;;;;;;15.20;7.10;;;;;;;2.20;65.92;99346.11;105270;1257;72326;-58
2023/03/08 01:14:08;;;;;;;13.80;8.40;;;;;;;2.31;65.97;99345.23;105343;1256;60615;-55
2023/03/08 01:16:36;;;;;;;17.40;7.70;;;;;;;2.37;65.84;99338.65;105408;1258;60444;-55
2023/03/08 01:19:04;;;;;;;15.40;7.50;;;;;;;2.37;65.81;99335.87;105208;1260;74854;-55
2023/03/08 01:21:33;;;;;;;19.30;7.30;;;;;;;2.37;65.73;99327.59;105289;1257;71327;-55
2023/03/08 01:24:01;;;;;;;16.90;8.60;;;;;;;2.36;65.72;99327.48;105498;1260;73638;-55
2023/03/08 01:26:30;;;;;;;19.40;8.20;;;;;;;2.34;65.80;99329.52;105418;1257;60407;-54
2023/03/08 01:28:58;;;;;;;17.70;8.80;;;;;;;2.32;65.96;99326.82;105441;1260;61304;-53
2023/03/08 01:31:28;;;;;;;20.90;9.80;;;;;;;2.34;66.15;99322.19;105431;1259;65988;-53
2023/03/08 01:33:59;;;;;;;17.20;8.50;;;;;;;2.35;66.16;99320.75;105569;1260;61382;-53
2023/03/08 01:36:27;;;;;;;18.40;8.40;;;;;;;2.38;66.27;99323.56;105402;1260;73346;-54
2023/03/08 01:38:59;;;;;;;23.90;10.90;;;;;;;2.38;66.27;99322.30;105423;1257;61751;-53
2023/03/08 01:41:28;;;;;;;18.50;8.60;;;;;;;2.38;66.26;99324.04;105513;1256;60333;-52
2023/03/08 01:43:57;;;;;;;12.80;6.60;;;;;;;2.49;66.34;99334.83;105366;1263;74818;-55
2023/03/08 01:46:29;;;;;;;14.70;5.80;;;;;;;2.63;66.15;99324.73;105411;1257;71071;-52
2023/03/08 01:49:28;;;;;;;16.50;6.20;;;;;;;2.74;66.02;99323.98;105356;1258;65016;-53
2023/03/08 01:52:15;;;;;;;16.00;6.50;;;;;;;2.88;66.06;99316.36;105365;1258;60523;-54
2023/03/08 01:54:45;;;;;;;12.90;7.40;;;;;;;3.03;65.85;99312.11;105332;1257;60553;-54
2023/03/08 01:57:36;;;;;;;17.90;7.60;;;;;;;3.09;65.70;99317.05;105481;1257;64990;-54
2023/03/08 02:00:21;;;;;;;18.80;8.90;;;;;;;3.13;65.56;99312.30;105465;1257;62604;-54
2023/03/08 02:03:00;;;;;;;14.30;7.10;;;;;;;3.14;65.35;99311.91;105259;1258;73658;-55
2023/03/08 02:05:29;;;;;;;16.60;8.30;;;;;;;3.14;65.27;99306.64;105342;1258;60483;-53
2023/03/08 02:08:03;;;;;;;18.70;8.50;;;;;;;3.16;65.19;99306.20;105458;1262;60437;-54
2023/03/08 02:10:34;;;;;;;17.90;9.40;;;;;;;3.13;65.00;99306.20;105360;1258;66143;-53
2023/03/08 02:13:06;;;;;;;15.40;7.10;;;;;;;3.10;65.02;99303.48;105446;1261;61793;-54
2023/03/08 02:15:37;;;;;;;18.60;7.90;;;;;;;3.07;65.08;99299.85;105315;1257;65075;-53
2023/03/08 02:18:06;;;;;;;15.50;7.50;;;;;;;3.06;65.18;99301.13;105577;1257;61602;-54
2023/03/08 02:20:39;;;;;;;22.30;9.40;;;;;;;3.05;65.25;99297.56;105245;1258;60453;-54
2023/03/08 02:23:09;;;;;;;18.40;8.30;;;;;;;3.05;65.27;99298.80;105550;1261;66285;-53
2023/03/08 02:25:37;;;;;;;18.50;7.40;;;;;;;3.03;65.22;99296.16;105284;1258;62606;-53
2023/03/08 02:28:08;;;;;;;17.70;7.90;;;;;;;3.04;65.28;99296.99;105264;1260;64747;-53
2023/03/08 02:30:36;;;;;;;13.40;5.70;;;;;;;3.10;65.22;99297.59;105266;1257;60460;-53
2023/03/08 02:33:06;;;;;;;15.10;7.40;;;;;;;3.21;65.01;99297.58;105335;1262;60484;-53
2023/03/08 02:35:35;;;;;;;15.30;5.80;;;;;;;3.31;64.94;99289.77;105435;1258;66130;-53
2023/03/08 02:38:04;;;;;;;12.80;5.40;;;;;;;3.41;65.01;99287.07;105380;1259;61506;-53
2023/03/08 02:40:37;;;;;;;13.70;6.00;;;;;;;3.50;64.86;99283.80;105293;1258;65038;-54
2023/03/08 02:43:06;;;;;;;14.70;7.00;;;;;;;3.58;64.81;99283.63;105463;1257;60582;-53
2023/03/08 02:45:35;;;;;;;21.00;15.20;;;;;;;3.63;64.78;99282.05;105306;1261;60654;-52
2023/03/08 02:48:04;;;;;;;13.00;6.70;;;;;;;3.67;64.58;99280.73;105497;1257;66212;-53
2023/03/08 02:50:32;;;;;;;22.30;15.80;;;;;;;3.72;64.52;99278.13;105317;1257;61627;-54
2023/03/08 02:53:03;;;;;;;17.20;7.70;;;;;;;3.75;64.20;99278.48;105380;1257;64029;-53
2023/03/08 02:55:35;;;;;;;15.80;7.70;;;;;;;3.76;64.08;99277.34;105430;1260;60504;-52
2023/03/08 02:58:08;;;;;;;13.40;7.50;;;;;;;3.76;63.93;99284.65;105232;1257;60392;-51
2023/03/08 03:00:37;;;;;;;13.10;6.40;;;;;;;3.77;63.80;99288.23;105416;1258;66260;-51
2023/03/08 03:03:07;;;;;;;21.00;14.80;;;;;;;3.77;63.38;99283.88;105400;1256;61349;-52
2023/03/08 03:05:43;;;;;;;14.30;5.80;;;;;;;3.77;63.20;99283.89;105415;1260;64751;-53
2023/03/08 03:08:15;;;;;;;15.90;5.20;;;;;;;3.85;62.93;99289.23;105442;1257;60372;-52
2023/03/08 03:10:44;;;;;;;19.20;14.50;;;;;;;4.02;62.48;99290.69;105441;1257;60475;-51
2023/03/08 03:13:15;;;;;;;14.40;6.50;;;;;;;4.12;62.18;99284.41;105362;1260;66153;-50
2023/03/08 03:15:44;;;;;;;14.60;7.50;;;;;;;4.20;62.07;99288.34;105417;1257;62467;-52
2023/03/08 03:18:14;;;;;;;22.40;15.60;;;;;;;4.27;61.73;99290.43;105343;1257;65250;-52
2023/03/08 03:20:43;;;;;;;12.70;5.50;;;;;;;4.31;61.45;99288.24;105407;1257;61131;-50
2023/03/08 03:23:11;;;;;;;14.00;6.50;;;;;;;4.33;61.02;99287.23;105312;1256;60443;-51
2023/03/08 03:25:45;;;;;;;20.20;15.50;;;;;;;4.32;60.67;99284.40;105381;1260;65805;-51
2023/03/08 03:28:15;;;;;;;12.10;4.80;;;;;;;4.29;60.51;99282.83;105462;1257;62339;-50
2023/03/08 03:30:44;;;;;;;15.90;6.30;;;;;;;4.27;60.39;99284.13;105717;1256;65022;-50
2023/03/08 03:33:14;;;;;;;12.30;5.80;;;;;;;4.25;60.29;99284.65;105391;1256;60447;-52
2023/03/08 03:35:43;;;;;;;15.50;6.40;;;;;;;4.23;60.17;99285.87;105455;1256;60464;-52
2023/03/08 03:38:11;;;;;;;24.80;15.60;;;;;;;4.21;60.18;99283.75;105375;1258;65006;-52
2023/03/08 03:40:43;;;;;;;13.10;6.70;;;;;;;4.21;60.15;99275.75;105411;1256;62414;-51
2023/03/08 03:43:12;;;;;;;13.90;6.50;;;;;;;4.20;59.99;99274.11;105431;1257;65184;-51
2023/03/08 03:45:40;;;;;;;15.30;6.80;;;;;;;4.18;60.00;99268.71;105461;1256;60464;-50
2023/03/08 03:48:09;;;;;;;22.90;14.40;;;;;;;4.16;59.91;99266.90;105480;1257;60508;-52
2023/03/08 03:50:38;;;;;;;14.90;5.90;;;;;;;4.16;59.87;99262.59;105465;1260;66011;-52
2023/03/08 03:53:12;;;;;;;12.90;5.40;;;;;;;4.22;59.78;99253.98;105332;1256;62607;-51
2023/03/08 03:55:41;;;;;;;11.90;5.10;;;;;;;4.31;59.68;99252.30;105453;1257;64773;-52
2023/03/08 03:58:15;;;;;;;12.70;6.30;;;;;;;4.41;59.50;99248.30;105263;1258;60535;-51
2023/03/08 04:00:59;;;;;;;14.20;6.50;;;;;;;4.51;59.27;99246.04;105397;1257;60469;-54
2023/03/08 04:03:30;;;;;;;14.50;6.50;;;;;;;4.59;59.24;99238.67;105471;1257;66284;-50
2023/03/08 04:06:30;;;;;;;21.10;14.50;;;;;;;4.65;59.22;99233.35;105366;1257;62318;-50
2023/03/08 04:09:05;;;;;;;22.30;14.50;;;;;;;4.69;58.84;99230.47;105441;1256;65112;-51
2023/03/08 04:11:37;;;;;;;13.20;6.10;;;;;;;4.69;58.66;99232.18;105328;1256;60465;-51
2023/03/08 04:14:06;;;;;;;13.90;6.10;;;;;;;4.68;58.57;99237.87;105464;1260;60517;-53
2023/03/08 04:16:38;;;;;;;11.20;6.00;;;;;;;4.64;58.43;99229.76;105409;1260;66141;-53
2023/03/08 04:19:12;;;;;;;13.40;6.40;;;;;;;4.60;58.58;99222.26;105493;1257;62538;-52
2023/03/08 04:21:47;;;;;;;20.50;15.20;;;;;;;4.56;58.54;99218.21;105437;1257;64762;-53
2023/03/08 04:24:16;;;;;;;13.60;6.30;;;;;;;4.52;58.56;99218.83;105444;1257;60456;-52
2023/03/08 04:26:46;;;;;;;14.60;6.20;;;;;;;4.46;58.68;99210.45;105454;1257;60559;-52
2023/03/08 04:29:23;;;;;;;22.10;15.00;;;;;;;4.40;58.81;99215.39;105314;1255;64837;-52
2023/03/08 04:31:54;;;;;;;11.80;6.40;;;;;;;4.34;58.79;99214.23;105287;1261;61680;-53
2023/03/08 04:34:23;;;;;;;18.30;7.40;;;;;;;4.28;58.91;99210.90;105432;1258;65327;-52
2023/03/08 04:36:52;;;;;;;21.40;15.70;;;;;;;4.20;58.99;99208.49;105424;1256;60461;-53
2023/03/08 04:39:21;;;;;;;12.90;5.60;;;;;;;4.12;59.12;99209.94;105474;1256;60639;-52
2023/03/08 04:41:49;;;;;;;12.20;5.50;;;;;;;4.14;59.23;99211.89;105435;1260;65924;-52
2023/03/08 04:44:25;;;;;;;13.40;5.90;;;;;;;4.20;59.19;99215.95;105425;1257;62518;-52
2023/03/08 04:46:55;;;;;;;15.40;5.90;;;;;;;4.27;59.14;99219.11;105498;1260;65387;-53
2023/03/08 04:49:29;;;;;;;21.20;16.20;;;;;;;4.36;59.22;99220.90;105361;1256;61663;-53
2023/03/08 04:52:00;;;;;;;17.80;6.70;;;;;;;4.41;58.97;99222.05;105541;1256;60443;-51
2023/03/08 04:54:29;;;;;;;24.90;16.90;;;;;;;4.46;58.81;99222.61;105330;1260;66020;-51
2023/03/08 04:57:03;;;;;;;18.40;7.80;;;;;;;4.47;58.68;99222.13;105376;1257;62218;-53
2023/03/08 04:59:34;;;;;;;23.30;15.40;;;;;;;4.50;58.66;99224.02;105247;1257;65233;-51
2023/03/08 05:02:03;;;;;;;15.90;7.20;;;;;;;4.52;58.57;99215.91;105104;1261;60475;-52
2023/03/08 05:04:32;;;;;;;14.90;6.60;;;;;;;4.52;58.59;99210.66;105301;1257;60544;-51
2023/03/08 05:07:01;;;;;;;16.50;7.20;;;;;;;4.51;58.42;99210.20;105417;1257;64832;-52
2023/03/08 05:09:31;;;;;;;11.50;7.50;;;;;;;4.49;58.49;99210.39;105435;1257;61623;-52
2023/03/08 05:12:00;;;;;;;22.50;15.30;;;;;;;4.47;58.35;99215.71;105379;1258;73453;-51
2023/03/08 05:14:36;;;;;;;11.80;6.00;;;;;;;4.44;58.33;99216.46;105360;1258;60484;-51
2023/03/08 05:17:04;;;;;;;14.20;6.90;;;;;;;4.42;58.31;99210.05;105386;1255;60860;-52
2023/03/08 05:19:34;;;;;;;14.60;7.00;;;;;;;4.39;58.38;99202.27;105614;1255;65257;-52
2023/03/08 05:22:04;;;;;;;13.50;6.10;;;;;;;4.38;58.54;99193.69;105510;1257;62294;-53
2023/03/08 05:24:33;;;;;;;23.70;16.50;;;;;;;4.37;58.63;99193.02;105387;1258;65088;-53
2023/03/08 05:27:08;;;;;;;15.00;6.70;;;;;;;4.39;58.54;99195.16;105235;1257;60478;-52
2023/03/08 05:29:36;;;;;;;20.70;14.30;;;;;;;4.45;58.46;99197.48;105445;1257;60489;-52
2023/03/08 05:32:05;;;;;;;10.60;4.50;;;;;;;4.56;58.31;99188.16;105300;1262;65766;-50
2023/03/08 05:34:34;;;;;;;13.50;6.70;;;;;;;4.67;58.20;99183.00;105491;1260;61731;-52
2023/03/08 05:37:03;;;;;;;19.80;14.30;;;;;;;4.77;58.02;99175.65;105386;1263;65623;-52
2023/03/08 05:39:34;;;;;;;22.60;15.60;;;;;;;4.83;57.91;99164.23;105507;1260;60549;-51
2023/03/08 05:42:10;;;;;;;13.80;6.60;;;;;;;4.90;57.77;99170.67;105484;1257;60562;-51
2023/03/08 05:44:40;;;;;;;13.30;6.30;;;;;;;4.92;57.52;99180.26;105496;1257;65223;-50
2023/03/08 05:47:10;;;;;;;22.00;16.00;;;;;;;4.93;57.56;99189.38;105484;1259;63090;-51
2023/03/08 05:49:41;;;;;;;14.00;6.20;;;;;;;4.94;57.60;99194.55;105369;1258;64947;-52
2023/03/08 05:52:11;;;;;;;14.70;7.00;;;;;;;4.93;57.57;99189.77;105273;1262;60546;-53
2023/03/08 05:54:39;;;;;;;11.50;6.00;;;;;;;4.92;57.52;99185.13;105667;1256;61402;-52
2023/03/08 05:57:11;;;;;;;23.90;16.30;;;;;;;4.91;57.69;99184.33;105456;1257;65229;-51
2023/03/08 05:59:40;;;;;;;21.60;16.40;;;;;;;4.91;57.57;99184.89;105617;1257;62317;-48
2023/03/08 06:02:13;;;;;;;15.00;6.10;;;;;;;4.90;57.62;99183.00;105481;1256;65077;-53
2023/03/08 06:04:47;;;;;;;16.60;7.30;;;;;;;4.92;57.65;99177.66;105497;1257;60446;-53
2023/03/08 06:07:21;;;;;;;22.00;16.20;;;;;;;4.93;57.76;99173.76;105436;1256;60469;-50
2023/03/08 06:09:55;;;;;;;13.90;6.00;;;;;;;4.96;57.76;99171.83;105440;1260;65610;-52
2023/03/08 06:12:28;;;;;;;22.20;16.70;;;;;;;4.99;57.73;99172.77;105388;1257;62671;-51
2023/03/08 06:14:59;;;;;;;17.20;7.20;;;;;;;5.04;57.79;99172.92;105603;1261;64770;-51
2023/03/08 06:17:32;;;;;;;25.40;16.10;;;;;;;5.15;57.61;99172.24;105542;1256;62058;-51
2023/03/08 06:20:01;;;;;;;13.50;6.50;;;;;;;5.27;57.53;99172.88;105507;1258;60558;-49
2023/03/08 06:22:31;;;;;;;20.30;15.60;;;;;;;5.35;57.48;99165.12;105525;1260;74964;-52
2023/03/08 06:25:03;;;;;;;20.10;15.30;;;;;;;5.43;57.46;99161.73;105506;1259;61655;-51
2023/03/08 06:27:34;;;;;;;12.90;7.20;;;;;;;5.51;57.36;99162.15;105372;1258;65276;-50
2023/03/08 06:30:07;;;;;;;13.10;6.30;;;;;;;5.56;57.18;99149.23;105429;1260;60544;-50
2023/03/08 06:32:36;;;;;;;14.60;6.80;;;;;;;5.61;57.12;99145.94;105338;1257;60380;-51
2023/03/08 06:35:06;;;;;;;23.70;17.00;;;;;;;5.65;57.00;99142.65;105502;1260;65896;-50
2023/03/08 06:37:37;;;;;;;15.00;6.70;;;;;;;5.68;56.86;99141.38;105468;1257;62945;-50
2023/03/08 06:40:08;;;;;;;16.40;7.80;;;;;;;5.70;56.78;99141.89;105389;1262;65081;-50
2023/03/08 06:42:39;;;;;;;22.10;16.50;;;;;;;5.72;56.71;99146.08;105340;1260;60520;-49
2023/03/08 06:45:12;;;;;;;21.40;16.90;;;;;;;5.74;56.55;99148.70;105338;1257;60675;-50
2023/03/08 06:47:40;;;;;;;12.10;6.40;;;;;;;5.74;56.60;99155.12;105488;1256;65965;-52
2023/03/08 06:50:09;;;;;;;21.60;15.90;;;;;;;5.75;56.76;99156.30;105494;1258;63058;-50
2023/03/08 06:52:39;;;;;;;21.70;16.00;;;;;;;5.79;56.69;99162.61;105705;1260;64864;-50
2023/03/08 06:55:10;;;;;;;25.10;16.70;;;;;;;5.86;56.44;99169.52;105530;1257;60720;-51
2023/03/08 06:57:38;;;;;;;21.70;15.80;;;;;;;5.95;56.24;99157.52;105546;1259;60430;-51
2023/03/08 07:00:10;;;;;;;12.40;6.50;;;;;;;5.99;55.99;99157.05;105470;1260;74842;-50
2023/03/08 07:02:38;;;;;;;23.70;16.50;;;;;;;6.00;56.02;99158.38;105428;1257;71077;-50
2023/03/08 07:05:07;;;;;;;12.20;6.40;;;;;;;6.02;56.23;99159.24;105564;1257;64725;-52
2023/03/08 07:07:35;;;;;;;23.70;15.60;;;;;;;6.06;56.02;99159.04;105513;1257;60553;-52
2023/03/08 07:10:04;;;;;;;22.20;17.10;;;;;;;6.11;56.14;99160.55;105434;1256;61390;-51
2023/03/08 07:12:35;;;;;;;11.40;5.30;;;;;;;6.17;56.06;99158.21;105586;1257;65658;-52
2023/03/08 07:15:09;;;;;;;13.60;6.10;;;;;;;6.20;55.75;99159.16;105466;1257;62692;-51
2023/03/08 07:17:42;;;;;;;11.20;5.20;;;;;;;6.21;55.65;99157.54;105438;1260;63801;-52
2023/03/08 07:20:12;;;;;;;21.00;15.80;;;;;;;6.20;55.62;99154.79;105514;1257;60482;-52
2023/03/08 07:22:42;;;;;;;22.70;16.00;;;;;;;6.21;55.77;99147.25;105512;1254;60437;-51
2023/03/08 07:25:12;;;;;;;23.30;16.10;;;;;;;6.24;55.70;99149.78;105499;1254;74805;-51
2023/03/08 07:27:42;;;;;;;12.10;5.60;;;;;;;6.28;55.82;99154.14;105395;1258;71248;-51
2023/03/08 07:30:13;;;;;;;23.80;16.30;;;;;;;6.34;55.77;99154.21;105493;1257;73615;-51
2023/03/08 07:32:41;;;;;;;17.00;8.40;;;;;;;6.38;55.49;99159.77;105366;1260;60539;-51
2023/03/08 07:35:11;;;;;;;23.30;15.80;;;;;;;6.39;55.42;99156.59;105566;1257;60546;-51
2023/03/08 07:37:45;;;;;;;12.70;6.40;;;;;;;6.40;55.34;99155.11;105499;1260;66112;-51
2023/03/08 07:40:15;;;;;;;23.60;15.50;;;;;;;6.42;55.42;99145.66;105434;1257;69968;-51
2023/03/08 07:42:44;;;;;;;12.10;6.10;;;;;;;6.46;55.42;99146.21;105496;1257;73641;-50
2023/03/08 07:45:28;;;;;;;23.00;16.20;;;;;;;6.52;55.48;99140.50;105575;1257;60605;-50
2023/03/08 07:47:56;;;;;;;23.70;16.30;;;;;;;6.58;55.26;99138.64;105509;1257;60533;-50
2023/03/08 07:50:25;;;;;;;19.60;7.80;;;;;;;6.63;55.42;99135.61;105453;1260;74784;-51
2023/03/08 07:52:55;;;;;;;23.80;16.30;;;;;;;6.69;55.42;99134.20;105459;1257;71458;-50
2023/03/08 07:55:26;;;;;;;13.80;7.30;;;;;;;6.77;55.09;99137.60;105473;1257;65129;-51
2023/03/08 07:57:55;;;;;;;15.00;6.60;;;;;;;6.82;54.85;99141.46;105416;1257;60570;-50
2023/03/08 08:00:24;;;;;;;20.80;15.00;;;;;;;6.86;54.57;99145.50;105394;1257;282086;-60
2023/03/08 08:16:44;;;;;;;22.50;16.00;;;;;;;7.26;54.38;99130.04;102860;1287;605638;-52
2023/03/08 08:19:13;;;;;;;21.80;14.90;;;;;;;7.79;53.14;99119.74;104633;1267;96020;-52
2023/03/08 08:21:41;;;;;;;19.20;14.50;;;;;;;7.80;52.95;99116.80;104632;1267;59864;-50
2023/03/08 08:24:07;;;;;;;21.40;15.10;;;;;;;7.81;52.84;99119.17;104597;1271;64394;-51
2023/03/08 08:26:34;;;;;;;19.70;14.60;;;;;;;7.84;52.83;99123.31;104718;1268;62594;-52
2023/03/08 08:29:02;;;;;;;19.80;15.40;;;;;;;7.88;53.02;99125.96;104630;1268;64776;-51
2023/03/08 08:31:32;;;;;;;22.00;15.60;;;;;;;7.88;52.75;99125.93;104608;1267;59315;-51
2023/03/08 08:34:00;;;;;;;19.20;14.60;;;;;;;7.86;52.67;99125.89;104687;1267;59267;-52
2023/03/08 08:36:27;;;;;;;21.00;14.40;;;;;;;7.90;53.00;99130.30;104628;1266;72990;-52
2023/03/08 08:38:54;;;;;;;18.50;14.60;;;;;;;7.98;52.72;99130.98;104813;1269;62548;-52
2023/03/08 08:41:22;;;;;;;17.60;12.90;;;;;;;8.05;52.49;99131.93;104660;1269;65231;-52
2023/03/08 08:43:50;;;;;;;19.50;14.00;;;;;;;8.12;52.32;99123.13;104723;1268;59732;-51
2023/03/08 08:46:17;;;;;;;20.00;14.50;;;;;;;8.23;52.16;99126.13;104680;1268;59775;-51
2023/03/08 08:48:45;;;;;;;14.30;7.10;;;;;;;8.35;52.14;99127.48;104717;1270;65329;-51
2023/03/08 08:51:12;;;;;;;18.80;13.70;;;;;;;8.43;51.74;99126.23;104661;1268;62632;-52
2023/03/08 08:53:39;;;;;;;19.80;13.60;;;;;;;8.48;51.33;99128.58;104663;1270;64987;-52
2023/03/08 08:56:20;;;;;;;18.90;12.20;;;;;;;8.50;51.04;99129.35;104674;1268;59659;-52
2023/03/08 08:58:59;;;;;;;17.20;13.10;;;;;;;8.47;51.02;99128.88;104710;1266;59659;-51
2023/03/08 09:01:28;;;;;;;20.90;12.80;;;;;;;8.46;51.13;99129.96;104694;1270;65392;-51
2023/03/08 09:04:15;;;;;;;17.30;12.10;;;;;;;8.48;51.08;99125.78;104570;1271;63855;-52
2023/03/08 09:06:44;;;;;;;16.70;11.90;;;;;;;8.51;50.80;99125.17;104653;1269;65001;-50
2023/03/08 09:09:11;;;;;;;19.20;13.00;;;;;;;8.54;50.95;99122.85;104614;1268;59608;-51
2023/03/08 09:11:39;;;;;;;18.70;13.20;;;;;;;8.58;51.07;99118.65;104617;1269;59784;-52
2023/03/08 09:14:21;;;;;;;19.50;14.30;;;;;;;8.65;50.84;99118.52;104618;1271;65287;-51
2023/03/08 09:16:48;;;;;;;19.90;14.00;;;;;;;8.70;50.87;99118.54;104900;1267;63005;-51
2023/03/08 09:19:15;;;;;;;19.40;14.20;;;;;;;8.75;50.84;99114.77;104707;1266;65378;-51
2023/03/08 09:21:42;;;;;;;19.80;14.20;;;;;;;8.82;50.95;99111.98;104640;1267;59572;-51
2023/03/08 09:24:10;;;;;;;20.70;14.70;;;;;;;8.89;50.78;99109.80;104715;1268;59728;-51
2023/03/08 09:26:40;;;;;;;19.30;15.00;;;;;;;8.94;50.50;99104.48;104561;1267;65203;-51
2023/03/08 09:29:07;;;;;;;22.30;15.20;;;;;;;8.96;50.47;99107.98;104558;1269;62611;-51
2023/03/08 09:31:35;;;;;;;22.40;15.00;;;;;;;8.93;50.31;99108.17;104634;1268;73511;-51
2023/03/08 09:34:07;;;;;;;18.50;13.70;;;;;;;8.91;50.49;99105.09;104625;1268;59682;-52
2023/03/08 09:36:35;;;;;;;18.40;13.70;;;;;;;8.86;50.49;99104.17;104619;1267;59635;-51
2023/03/08 09:39:04;;;;;;;18.10;12.70;;;;;;;8.80;50.43;99106.82;104745;1271;65386;-51
2023/03/08 09:41:43;;;;;;;18.70;13.80;;;;;;;8.73;50.47;99104.27;105144;1259;62644;-51
2023/03/08 09:44:47;;;;;;;20.80;14.70;;;;;;;8.68;50.80;99099.98;105089;1264;65040;-50
2023/03/08 09:47:24;;;;;;;19.70;14.30;;;;;;;8.68;51.15;99093.34;104973;1262;59750;-51
2023/03/08 09:49:52;;;;;;;;;;;;;;;8.74;51.06;99085.48;105066;1259;59885;-52
2023/03/08 09:52:37;;;;;;;18.70;14.50;;;;;;;8.79;50.96;99085.55;105066;1261;65235;-50
2023/03/08 09:55:11;;;;;;;19.30;13.50;;;;;;;8.84;50.99;99082.44;105012;1262;62814;-50
2023/03/08 09:57:45;;;;;;;17.40;12.60;;;;;;;8.89;50.82;99081.00;104816;1265;63967;-53
2023/03/08 10:00:19;;;;;;;20.50;12.50;;;;;;;8.88;50.42;99084.20;105242;1259;59591;-52
2023/03/08 10:03:16;;;;;;;20.10;13.70;;;;;;;8.85;50.36;99081.63;105121;1264;59636;-52
2023/03/08 10:05:46;;;;;;;15.80;11.00;;;;;;;8.81;50.41;99078.70;105042;1263;66794;-51
2023/03/08 10:08:29;;;;;;;11.50;5.70;;;;;;;8.75;50.74;99075.80;105031;1264;62257;-49
2023/03/08 10:11:15;;;;;;;16.30;11.30;;;;;;;8.74;51.01;99071.85;105192;1262;65125;-50
2023/03/08 10:13:46;;;;;;;17.90;13.10;;;;;;;8.72;50.99;99077.07;105030;1259;60042;-52
2023/03/08 10:16:23;;;;;;;17.20;12.10;;;;;;;8.68;51.17;99084.64;105007;1264;59573;-50
2023/03/08 10:18:57;;;;;;;17.60;11.70;;;;;;;8.64;51.32;99097.73;105160;1262;64184;-51
2023/03/08 10:21:25;;;;;;;18.90;12.00;;;;;;;8.61;51.38;99106.28;105207;1264;62468;-52
2023/03/08 10:24:03;;;;;;;16.10;11.70;;;;;;;8.58;51.67;99121.63;105134;1265;64040;-53
2023/03/08 10:26:30;;;;;;;18.80;13.30;;;;;;;8.55;51.77;99125.16;105151;1260;59783;-53
2023/03/08 10:28:57;;;;;;;18.50;13.00;;;;;;;8.55;51.86;99114.15;105191;1260;59839;-52
2023/03/08 10:31:29;;;;;;;18.80;13.40;;;;;;;8.54;51.88;99101.59;104910;1264;65228;-53
2023/03/08 10:34:09;;;;;;;18.00;12.80;;;;;;;8.56;52.00;99096.43;105397;1256;62355;-53
2023/03/08 10:36:51;;;;;;;17.80;13.10;;;;;;;8.59;52.11;99091.73;105261;1256;64964;-52
2023/03/08 10:39:18;;;;;;;19.80;13.00;;;;;;;8.64;52.10;99092.88;105367;1256;59553;-54
2023/03/08 10:41:51;;;;;;;19.30;13.20;;;;;;;8.68;52.10;99096.18;105618;1260;59637;-52
2023/03/08 10:44:39;;;;;;;18.00;12.80;;;;;;;8.70;52.02;99091.42;105457;1259;64098;-51
2023/03/08 10:47:29;;;;;;;18.10;12.60;;;;;;;8.72;52.14;99093.17;105452;1256;62431;-52
2023/03/08 10:50:12;;;;;;;19.70;13.20;;;;;;;8.76;51.92;99106.65;105389;1260;64923;-53
2023/03/08 10:52:41;;;;;;;16.80;13.60;;;;;;;8.75;51.87;99103.38;105421;1256;59734;-53
2023/03/08 10:55:08;;;;;;;18.70;14.00;;;;;;;8.72;51.99;99099.46;105517;1256;59640;-52
2023/03/08 10:57:36;;;;;;;20.40;14.20;;;;;;;8.71;52.09;99087.81;105545;1257;65366;-51
2023/03/08 11:00:19;;;;;;;18.10;13.80;;;;;;;8.72;52.27;99089.85;105490;1256;62749;-53
2023/03/08 11:02:48;;;;;;;19.60;13.10;;;;;;;8.76;52.33;99091.80;105428;1256;64928;-51
2023/03/08 11:05:28;;;;;;;18.40;13.00;;;;;;;8.77;52.19;99089.39;105446;1255;59752;-50
2023/03/08 11:07:56;;;;;;;19.70;14.30;;;;;;;8.77;52.17;99085.79;105344;1256;59516;-52
2023/03/08 11:10:26;;;;;;;19.80;14.50;;;;;;;8.76;52.22;99081.31;105586;1256;64585;-53
2023/03/08 11:13:07;;;;;;;21.30;15.20;;;;;;;8.77;52.39;99070.73;105358;1257;61628;-53
2023/03/08 11:15:39;;;;;;;19.40;14.40;;;;;;;8.78;52.51;99075.91;105392;1261;63763;-52
2023/03/08 11:18:24;;;;;;;20.70;14.90;;;;;;;8.79;52.49;99074.73;105517;1256;59640;-53
2023/03/08 11:20:55;;;;;;;19.40;14.40;;;;;;;8.80;52.53;99076.02;105397;1256;59643;-51
2023/03/08 11:23:31;;;;;;;19.00;13.90;;;;;;;8.80;52.59;99075.52;105567;1259;65608;-51
2023/03/08 11:26:36;;;;;;;18.00;13.80;;;;;;;8.82;52.84;99064.86;105495;1256;62173;-49
2023/03/08 11:29:11;;;;;;;23.10;14.70;;;;;;;8.85;52.78;99055.10;105381;1256;64735;-51
2023/03/08 11:32:04;;;;;;;20.90;15.00;;;;;;;8.86;52.91;99058.30;105432;1256;59708;-52
2023/03/08 11:35:05;;;;;;;17.30;12.90;;;;;;;8.88;52.97;99060.91;105384;1256;59761;-50
2023/03/08 11:37:38;;;;;;;18.00;13.60;;;;;;;8.91;52.86;99055.24;105599;1255;65510;-51
2023/03/08 11:40:13;;;;;;;18.10;13.80;;;;;;;8.93;52.81;99057.66;105379;1256;62597;-52
2023/03/08 11:42:53;;;;;;;19.00;14.10;;;;;;;8.96;52.85;99057.79;105535;1261;64905;-52
2023/03/08 11:45:26;;;;;;;16.90;13.10;;;;;;;8.97;52.87;99066.02;105488;1256;59529;-50
2023/03/08 11:48:02;;;;;;;20.50;13.00;;;;;;;8.99;52.57;99065.68;105391;1260;60333;-51
2023/03/08 11:50:37;;;;;;;17.80;12.30;;;;;;;9.04;52.65;99064.64;105508;1260;65369;-53
2023/03/08 11:53:19;;;;;;;17.60;12.60;;;;;;;9.11;52.55;99059.44;105731;1256;62647;-51
2023/03/08 11:56:11;;;;;;;18.40;12.40;;;;;;;9.22;52.51;99055.27;105292;1256;65109;-51
2023/03/08 11:58:51;;;;;;;19.00;12.80;;;;;;;9.39;52.12;99054.36;105454;1258;59775;-51